createdAt,value
2022-08-28T00:01:21.719Z,101525.63
2022-08-28T00:04:27.469Z,101526.94
2022-08-28T00:07:32.758Z,101524.97
2022-08-28T00:10:40.083Z,101525.38
2022-08-28T00:13:47.433Z,101524.97
2022-08-28T00:16:52.861Z,101530.91
2022-08-28T00:19:58.182Z,101524.53
2022-08-28T00:23:04.790Z,101518.66
2022-08-28T00:26:34.775Z,101522.00
2022-08-28T00:29:41.487Z,101521.69
2022-08-28T00:32:46.850Z,101520.22
2022-08-28T00:35:53.069Z,101521.41
2022-08-28T00:39:00.129Z,101529.34
2022-08-28T00:42:06.193Z,101531.78
2022-08-28T00:45:15.365Z,101531.53
2022-08-28T00:48:21.402Z,101525.31
2022-08-28T00:51:59.394Z,101536.75
2022-08-28T00:55:10.367Z,101524.31
2022-08-28T00:58:16.157Z,101529.19
2022-08-28T01:01:22.924Z,101524.16
2022-08-28T01:04:32.301Z,101535.91
2022-08-28T01:07:39.525Z,101546.22
2022-08-28T01:10:49.661Z,101538.84
2022-08-28T01:13:56.912Z,101537.34
2022-08-28T01:17:09.771Z,101541.69
2022-08-28T01:20:21.150Z,101546.13
2022-08-28T01:23:46.886Z,101547.41
2022-08-28T01:26:52.472Z,101549.16
2022-08-28T01:29:58.696Z,101550.94
2022-08-28T01:33:04.413Z,101546.19
2022-08-28T01:36:12.655Z,101543.03
2022-08-28T01:39:24.411Z,101538.16
2022-08-28T01:42:30.740Z,101530.63
2022-08-28T01:45:37.702Z,101542.34
2022-08-28T01:48:44.563Z,101541.38
2022-08-28T01:51:50.585Z,101544.13
2022-08-28T01:54:59.122Z,101533.34
2022-08-28T01:58:08.680Z,101545.72
2022-08-28T02:01:16.596Z,101539.53
2022-08-28T02:04:27.558Z,101542.75
2022-08-28T02:07:39.198Z,101540.84
2022-08-28T02:10:47.159Z,101543.13
2022-08-28T02:13:54.324Z,101540.00
2022-08-28T02:17:01.584Z,101546.38
2022-08-28T02:20:08.719Z,101539.25
2022-08-28T02:23:16.599Z,101530.88
2022-08-28T02:26:23.716Z,101547.38
2022-08-28T02:29:29.454Z,101539.84
2022-08-28T02:32:35.154Z,101542.41
2022-08-28T02:35:41.566Z,101547.75
2022-08-28T02:38:47.457Z,101542.34
2022-08-28T02:41:54.249Z,101540.56
2022-08-28T02:44:59.824Z,101540.63
2022-08-28T02:48:05.586Z,101534.09
2022-08-28T02:51:22.913Z,101535.03
2022-08-28T02:54:28.447Z,101541.31
2022-08-28T02:57:35.378Z,101545.75
2022-08-28T03:00:41.490Z,101535.72
2022-08-28T03:03:47.282Z,101530.09
2022-08-28T03:06:52.590Z,101522.50
2022-08-28T03:09:58.127Z,101525.78
2022-08-28T03:13:06.044Z,101521.66
2022-08-28T03:16:12.724Z,101526.59
2022-08-28T03:19:18.282Z,101519.22
2022-08-28T03:22:43.946Z,101523.47
2022-08-28T03:25:52.130Z,101517.25
2022-08-28T03:28:59.684Z,101520.66
2022-08-28T03:32:06.291Z,101515.09
2022-08-28T03:35:13.147Z,101516.47
2022-08-28T03:38:19.142Z,101522.81
2022-08-28T03:41:29.105Z,101522.56
2022-08-28T03:44:36.820Z,101520.28
2022-08-28T03:47:43.278Z,101515.38
2022-08-28T03:50:49.051Z,101516.63
2022-08-28T03:53:54.722Z,101515.56
2022-08-28T03:57:00.462Z,101515.19
2022-08-28T04:00:11.033Z,101518.38
2022-08-28T04:03:20.256Z,101528.81
2022-08-28T04:06:25.869Z,101529.59
2022-08-28T04:09:31.200Z,101527.28
2022-08-28T04:12:37.186Z,101528.75
2022-08-28T04:15:44.278Z,101528.66
2022-08-28T04:18:51.344Z,101521.19
2022-08-28T04:21:56.683Z,101525.41
2022-08-28T04:25:02.312Z,101525.25
2022-08-28T04:28:07.770Z,101534.16
2022-08-28T04:31:15.262Z,101535.44
2022-08-28T04:34:20.994Z,101535.38
2022-08-28T04:37:27.877Z,101539.19
2022-08-28T04:40:33.386Z,101537.59
2022-08-28T04:43:39.193Z,101536.88
2022-08-28T04:46:48.301Z,101552.41
2022-08-28T04:49:54.298Z,101550.66
2022-08-28T04:52:59.881Z,101555.34
2022-08-28T04:56:09.070Z,101555.94
2022-08-28T04:59:14.905Z,101557.22
2022-08-28T05:02:21.875Z,101560.63
2022-08-28T05:05:27.178Z,101552.78
2022-08-28T05:08:32.443Z,101553.13
2022-08-28T05:11:38.019Z,101547.38
2022-08-28T05:14:43.544Z,101540.50
2022-08-28T05:17:50.258Z,101551.34
2022-08-28T05:20:55.579Z,101552.69
2022-08-28T05:24:00.927Z,101555.28
2022-08-28T05:27:06.810Z,101540.28
2022-08-28T05:30:14.799Z,101548.34
2022-08-28T05:33:22.182Z,101553.84
2022-08-28T05:36:32.507Z,101556.97
2022-08-28T05:39:38.518Z,101558.19
2022-08-28T05:42:44.502Z,101556.81
2022-08-28T05:46:00.179Z,101555.41
2022-08-28T05:49:10.285Z,101553.56
2022-08-28T05:52:16.577Z,101543.78
2022-08-28T05:55:22.103Z,101551.22
2022-08-28T05:58:31.283Z,101555.09
2022-08-28T06:01:39.805Z,101559.75
2022-08-28T06:04:49.026Z,101556.69
2022-08-28T06:07:54.535Z,101564.94
2022-08-28T06:11:00.860Z,101561.28
2022-08-28T06:14:10.951Z,101566.03
2022-08-28T06:17:16.766Z,101571.31
2022-08-28T06:20:30.447Z,101570.66
2022-08-28T06:23:36.219Z,101564.13
2022-08-28T06:26:41.750Z,101565.78
2022-08-28T06:29:47.362Z,101566.53
2022-08-28T06:32:52.612Z,101558.00
2022-08-28T06:35:59.353Z,101559.94
2022-08-28T06:39:06.991Z,101568.63
2022-08-28T06:42:12.998Z,101573.81
2022-08-28T06:45:19.141Z,101581.97
2022-08-28T06:48:27.421Z,101572.13
2022-08-28T06:51:34.800Z,101576.69
2022-08-28T06:54:40.469Z,101565.13
2022-08-28T06:58:00.678Z,101565.56
2022-08-28T07:01:10.466Z,101561.44
2022-08-28T07:04:17.467Z,101566.25
2022-08-28T07:07:32.356Z,101578.00
2022-08-28T07:10:38.190Z,101575.78
2022-08-28T07:13:44.216Z,101568.47
2022-08-28T07:16:49.846Z,101582.81
2022-08-28T07:19:57.243Z,101579.88
2022-08-28T07:23:03.831Z,101576.34
2022-08-28T07:26:13.309Z,101578.22
2022-08-28T07:29:19.211Z,101584.41
2022-08-28T07:32:25.229Z,101586.47
2022-08-28T07:35:30.557Z,101591.25
2022-08-28T07:38:37.478Z,101588.81
2022-08-28T07:41:43.772Z,101593.84
2022-08-28T07:44:50.982Z,101607.97
2022-08-28T07:47:56.630Z,101604.63
2022-08-28T07:51:01.961Z,101602.50
2022-08-28T07:54:10.190Z,101616.31
2022-08-28T07:57:21.469Z,101620.06
2022-08-28T08:00:28.198Z,101628.28
2022-08-28T08:03:33.728Z,101623.75
2022-08-28T08:06:40.647Z,101615.72
2022-08-28T08:09:47.742Z,101620.00
2022-08-28T08:12:55.318Z,101614.03
2022-08-28T08:16:07.252Z,101615.03
2022-08-28T08:19:15.102Z,101620.06
2022-08-28T08:22:20.811Z,101628.25
2022-08-28T08:25:27.942Z,101610.94
2022-08-28T08:28:37.305Z,101623.34
2022-08-28T08:31:44.093Z,101624.41
2022-08-28T08:34:49.839Z,101630.38
2022-08-28T08:37:55.048Z,101639.06
2022-08-28T08:41:07.050Z,101648.56
2022-08-28T08:44:33.256Z,101648.03
2022-08-28T08:47:45.140Z,101648.88
2022-08-28T08:50:50.585Z,101645.59
2022-08-28T08:54:02.402Z,101648.38
2022-08-28T08:57:12.001Z,101647.13
2022-08-28T09:00:18.890Z,101639.84
2022-08-28T09:03:28.014Z,101621.91
2022-08-28T09:06:43.519Z,101634.63
2022-08-28T09:09:53.147Z,101629.44
2022-08-28T09:13:13.487Z,101639.84
2022-08-28T09:16:28.144Z,101650.56
2022-08-28T09:19:33.748Z,101649.66
2022-08-28T09:22:41.604Z,101658.69
2022-08-28T09:25:53.586Z,101653.53
2022-08-28T09:29:06.505Z,101652.00
2022-08-28T09:32:22.886Z,101637.13
2022-08-28T09:35:31.115Z,101637.69
2022-08-28T09:38:36.752Z,101630.19
2022-08-28T09:42:08.783Z,101636.53
2022-08-28T09:45:21.195Z,101631.66
2022-08-28T09:48:34.670Z,101638.44
2022-08-28T09:51:40.169Z,101634.16
2022-08-28T09:54:46.819Z,101638.19
2022-08-28T09:57:52.202Z,101644.00
2022-08-28T10:01:11.199Z,101646.00
2022-08-28T10:04:47.653Z,101662.34
2022-08-28T10:07:56.543Z,101650.66
2022-08-28T10:11:12.106Z,101667.91
2022-08-28T10:14:43.954Z,101668.81
2022-08-28T10:18:12.224Z,101669.81
2022-08-28T10:21:24.813Z,101659.78
2022-08-28T10:24:48.909Z,101675.00
2022-08-28T10:28:22.323Z,101675.47
2022-08-28T10:31:36.238Z,101683.63
2022-08-28T10:34:54.398Z,101690.81
2022-08-28T10:38:08.483Z,101696.66
2022-08-28T10:41:19.571Z,101696.34
2022-08-28T10:44:31.869Z,101694.47
2022-08-28T10:47:41.912Z,101688.56
2022-08-28T10:50:51.871Z,101689.56
2022-08-28T10:54:03.606Z,101698.16
2022-08-28T10:57:20.229Z,101690.31
2022-08-28T11:00:28.598Z,101693.75
2022-08-28T11:03:46.407Z,101696.00
2022-08-28T11:06:56.364Z,101693.00
2022-08-28T11:10:19.364Z,101700.75
2022-08-28T11:13:51.156Z,101700.31
2022-08-28T11:17:00.045Z,101705.03
2022-08-28T11:20:15.461Z,101712.69
2022-08-28T11:23:38.425Z,101705.50
2022-08-28T11:27:05.582Z,101715.25
2022-08-28T11:30:34.600Z,101723.22
2022-08-28T11:33:42.545Z,101731.06
2022-08-28T11:37:03.153Z,101740.22
2022-08-28T11:40:58.014Z,101740.31
2022-08-28T11:44:42.989Z,101739.72
2022-08-28T11:47:56.691Z,101749.03
2022-08-28T11:51:06.961Z,101755.97
2022-08-28T11:54:37.592Z,101761.38
2022-08-28T12:01:10.029Z,101771.91
2022-08-28T12:04:18.181Z,101774.91
2022-08-28T12:07:24.755Z,101775.03
2022-08-28T12:10:59.218Z,101789.66
2022-08-28T12:14:06.091Z,101781.16
2022-08-28T12:17:30.518Z,101779.59
2022-08-28T12:20:48.733Z,101792.50
2022-08-28T12:24:09.840Z,101782.97
2022-08-28T12:27:18.983Z,101797.53
2022-08-28T12:30:40.424Z,101807.25
2022-08-28T12:33:51.961Z,101796.13
2022-08-28T12:36:59.022Z,101802.19
2022-08-28T12:40:15.408Z,101801.28
2022-08-28T12:43:41.682Z,101809.00
2022-08-28T12:46:53.180Z,101803.25
2022-08-28T12:49:58.577Z,101798.69
2022-08-28T12:53:07.590Z,101806.78
2022-08-28T12:56:18.714Z,101798.63
2022-08-28T12:59:27.349Z,101781.78
2022-08-28T13:02:35.305Z,101788.38
2022-08-28T13:05:41.270Z,101762.47
2022-08-28T13:08:50.142Z,101764.97
2022-08-28T13:11:55.612Z,101765.59
2022-08-28T13:15:01.249Z,101772.34
2022-08-28T13:18:08.906Z,101775.53
2022-08-28T13:21:34.995Z,101772.22
2022-08-28T13:24:45.696Z,101781.22
2022-08-28T13:28:02.970Z,101791.94
2022-08-28T13:31:32.458Z,101805.66
2022-08-28T13:34:45.543Z,101787.59
2022-08-28T13:37:55.635Z,101790.22
2022-08-28T13:41:05.544Z,101787.41
2022-08-28T13:44:11.375Z,101795.47
2022-08-28T13:47:18.575Z,101794.63
2022-08-28T13:50:24.185Z,101787.75
2022-08-28T13:53:29.510Z,101792.66
2022-08-28T13:56:37.598Z,101771.47
2022-08-28T13:59:43.091Z,101766.56
2022-08-28T14:03:07.389Z,101760.88
2022-08-28T14:06:16.844Z,101767.75
2022-08-28T14:09:22.229Z,101777.78
2022-08-28T14:12:33.382Z,101752.38
2022-08-28T14:15:39.187Z,101744.78
2022-08-28T14:18:45.862Z,101730.72
2022-08-28T14:21:51.660Z,101736.25
2022-08-28T14:24:57.610Z,101767.06
2022-08-28T14:28:03.280Z,101791.06
2022-08-28T14:31:13.717Z,101792.69
2022-08-28T14:34:23.806Z,101787.53
2022-08-28T14:37:29.230Z,101790.22
2022-08-28T14:40:38.197Z,101792.94
2022-08-28T14:43:43.550Z,101799.97
2022-08-28T14:46:50.437Z,101832.63
2022-08-28T14:49:57.141Z,101841.41
2022-08-28T14:53:02.540Z,101845.34
2022-08-28T14:56:09.048Z,101842.13
2022-08-28T14:59:23.640Z,101837.16
2022-08-28T15:02:29.587Z,101841.75
2022-08-28T15:05:36.432Z,101840.59
2022-08-28T15:08:41.782Z,101827.53
2022-08-28T15:11:47.741Z,101838.38
2022-08-28T15:14:57.176Z,101830.81
2022-08-28T15:18:03.014Z,101813.91
2022-08-28T15:21:17.191Z,101816.81
2022-08-28T15:24:25.551Z,101815.78
2022-08-28T15:27:30.651Z,101828.03
2022-08-28T15:30:36.779Z,101825.72
2022-08-28T15:33:45.392Z,101820.00
2022-08-28T15:36:56.023Z,101816.53
2022-08-28T15:40:19.142Z,101824.22
2022-08-28T15:43:24.499Z,101835.00
2022-08-28T15:46:33.579Z,101835.56
2022-08-28T15:49:46.859Z,101819.53
2022-08-28T15:52:56.993Z,101832.22
2022-08-28T15:56:04.872Z,101830.41
2022-08-28T15:59:10.665Z,101827.78
2022-08-28T16:02:16.464Z,101823.38
2022-08-28T16:05:22.493Z,101833.41
2022-08-28T16:08:29.618Z,101844.03
2022-08-28T16:11:35.014Z,101849.69
2022-08-28T16:14:44.374Z,101832.88
2022-08-28T16:17:50.095Z,101853.72
2022-08-28T16:20:55.461Z,101844.16
2022-08-28T16:24:02.190Z,101858.72
2022-08-28T16:27:13.134Z,101852.72
2022-08-28T16:30:21.091Z,101855.88
2022-08-28T16:33:30.436Z,101853.31
2022-08-28T16:36:37.009Z,101860.44
2022-08-28T16:39:43.983Z,101859.75
2022-08-28T16:42:51.641Z,101860.44
2022-08-28T16:45:57.448Z,101869.16
2022-08-28T16:49:02.844Z,101870.84
2022-08-28T16:52:08.414Z,101874.31
2022-08-28T16:55:15.610Z,101880.78
2022-08-28T16:58:21.341Z,101866.22
2022-08-28T17:01:27.499Z,101881.06
2022-08-28T17:04:33.239Z,101891.88
2022-08-28T17:07:39.820Z,101895.59
2022-08-28T17:10:46.578Z,101878.28
2022-08-28T17:13:52.111Z,101892.19
2022-08-28T17:16:57.428Z,101901.19
2022-08-28T17:20:02.958Z,101900.44
2022-08-28T17:23:08.179Z,101902.34
2022-08-28T17:26:15.356Z,101904.66
2022-08-28T17:29:20.925Z,101900.09
2022-08-28T17:32:26.738Z,101898.00
2022-08-28T17:35:32.089Z,101885.72
2022-08-28T17:38:47.450Z,101906.56
2022-08-28T17:41:54.078Z,101914.28
2022-08-28T17:44:59.622Z,101923.00
2022-08-28T17:48:05.921Z,101919.56
2022-08-28T17:51:11.952Z,101933.53
2022-08-28T17:54:21.544Z,101934.28
2022-08-28T17:57:30.531Z,101931.06
2022-08-28T18:00:35.812Z,101930.16
2022-08-28T18:03:43.947Z,101938.03
2022-08-28T18:06:58.820Z,101934.59
2022-08-28T18:10:04.969Z,101930.31
2022-08-28T18:13:15.058Z,101938.03
2022-08-28T18:16:20.737Z,101941.38
2022-08-28T18:19:26.125Z,101934.00
2022-08-28T18:22:31.480Z,101941.63
2022-08-28T18:25:44.882Z,101951.31
2022-08-28T18:28:57.531Z,101954.50
2022-08-28T18:32:03.787Z,101960.53
2022-08-28T18:35:09.960Z,101960.72
2022-08-28T18:38:16.385Z,101969.25
2022-08-28T18:41:22.166Z,101966.66
2022-08-28T18:44:37.848Z,101969.13
2022-08-28T18:47:43.479Z,101962.31
2022-08-28T18:50:49.885Z,101963.09
2022-08-28T18:53:56.414Z,101963.53
2022-08-28T18:57:04.492Z,101956.56
2022-08-28T19:00:15.785Z,101961.84
2022-08-28T19:03:21.210Z,101963.44
2022-08-28T19:06:26.814Z,101955.75
2022-08-28T19:09:34.887Z,101967.03
2022-08-28T19:12:41.880Z,101970.28
2022-08-28T19:15:52.807Z,101970.63
2022-08-28T19:18:59.523Z,101964.16
2022-08-28T19:22:07.354Z,101958.38
2022-08-28T19:25:27.853Z,101961.78
2022-08-28T19:28:36.424Z,101960.19
2022-08-28T19:31:44.136Z,101953.25
2022-08-28T19:34:56.109Z,101961.28
2022-08-28T19:38:01.577Z,101957.72
2022-08-28T19:41:08.334Z,101961.91
2022-08-28T19:44:13.921Z,101952.41
2022-08-28T19:47:20.915Z,101954.88
2022-08-28T19:50:26.876Z,101960.03
2022-08-28T19:53:32.814Z,101960.75
2022-08-28T19:56:38.207Z,101963.47
2022-08-28T19:59:43.586Z,101967.63
2022-08-28T20:02:53.242Z,101954.78
2022-08-28T20:06:03.633Z,101953.84
2022-08-28T20:09:12.670Z,101958.88
2022-08-28T20:12:18.610Z,101963.19
2022-08-28T20:15:24.110Z,101963.44
2022-08-28T20:18:30.781Z,101969.28
2022-08-28T20:21:37.011Z,101968.41
2022-08-28T20:24:43.550Z,101967.47
2022-08-28T20:27:48.827Z,101973.34
2022-08-28T20:30:54.163Z,101965.63
2022-08-28T20:34:01.107Z,101964.34
2022-08-28T20:37:06.947Z,101973.75
2022-08-28T20:40:16.499Z,101972.41
2022-08-28T20:43:21.934Z,101966.97
2022-08-28T20:46:27.300Z,101971.06
2022-08-28T20:49:34.213Z,101963.66
2022-08-28T20:52:44.835Z,101956.78
2022-08-28T20:55:50.346Z,101956.72
2022-08-28T20:58:55.909Z,101957.09
2022-08-28T21:02:01.615Z,101957.63
2022-08-28T21:05:09.589Z,101954.28
2022-08-28T21:08:16.924Z,101949.84
2022-08-28T21:11:22.263Z,101949.91
2022-08-28T21:14:28.133Z,101954.06
2022-08-28T21:17:33.924Z,101956.47
2022-08-28T21:20:40.720Z,101946.44
2022-08-28T21:23:46.106Z,101951.50
2022-08-28T21:26:52.549Z,101960.16
2022-08-28T21:29:58.975Z,101954.84
2022-08-28T21:33:05.434Z,101960.09
2022-08-28T21:36:17.210Z,101957.34
2022-08-28T21:39:23.030Z,101961.69
2022-08-28T21:42:29.041Z,101954.78
2022-08-28T21:45:34.437Z,101946.03
2022-08-28T21:48:40.411Z,101949.66
2022-08-28T21:51:47.499Z,101942.13
2022-08-28T21:54:59.080Z,101941.28
2022-08-28T21:58:04.339Z,101943.84
2022-08-28T22:01:14.152Z,101936.84
2022-08-28T22:04:19.570Z,101923.94
2022-08-28T22:07:26.429Z,101916.41
2022-08-28T22:10:32.357Z,101914.75
2022-08-28T22:13:37.779Z,101901.81
2022-08-28T22:16:43.279Z,101897.59
2022-08-28T22:19:48.697Z,101903.53
2022-08-28T22:23:12.715Z,101905.22
2022-08-28T22:26:21.167Z,101911.25
2022-08-28T22:29:26.819Z,101910.41
2022-08-28T22:32:32.272Z,101922.16
2022-08-28T22:35:38.294Z,101933.19
2022-08-28T22:38:50.487Z,101945.78
2022-08-28T22:41:59.114Z,101952.47
2022-08-28T22:45:05.179Z,101954.06
2022-08-28T22:48:16.550Z,101949.81
2022-08-28T22:51:21.819Z,101941.09
2022-08-28T22:54:28.827Z,101935.88
2022-08-28T22:57:34.174Z,101931.69
2022-08-28T23:00:41.734Z,101938.53
2022-08-28T23:03:47.256Z,101932.56
2022-08-28T23:06:52.808Z,101942.81
2022-08-28T23:10:00.046Z,101939.47
2022-08-28T23:13:05.439Z,101941.91
2022-08-28T23:16:13.102Z,101932.38
2022-08-28T23:19:19.450Z,101939.25
2022-08-28T23:22:25.081Z,101916.16
2022-08-28T23:25:31.730Z,101917.84
2022-08-28T23:28:37.006Z,101923.94
2022-08-28T23:31:42.384Z,101915.41
2022-08-28T23:34:48.247Z,101918.94
2022-08-28T23:37:53.702Z,101915.53
2022-08-28T23:41:00.506Z,101899.97
2022-08-28T23:44:09.029Z,101895.63
2022-08-28T23:47:15.364Z,101890.41
2022-08-28T23:50:24.219Z,101899.91
2022-08-28T23:53:30.998Z,101904.13
2022-08-28T23:56:40.614Z,101900.63
2022-08-28T23:59:45.892Z,101895.41
